createdAt,value
2023-02-21T00:00:08.453Z,95191.30
2023-02-21T00:03:22.021Z,95183.34
2023-02-21T00:06:08.947Z,95180.30
2023-02-21T00:08:55.956Z,95181.30
2023-02-21T00:11:42.885Z,95183.90
2023-02-21T00:14:29.533Z,95185.46
2023-02-21T00:17:16.294Z,95188.81
2023-02-21T00:20:02.792Z,95185.92
2023-02-21T00:22:50.031Z,95186.32
2023-02-21T00:25:37.150Z,95178.16
2023-02-21T00:28:23.801Z,95179.14
2023-02-21T00:31:11.030Z,95170.45
2023-02-21T00:33:57.992Z,95159.40
2023-02-21T00:36:45.117Z,95154.93
2023-02-21T00:39:32.441Z,95147.51
2023-02-21T00:42:19.187Z,95160.73
2023-02-21T00:45:06.570Z,95157.67
2023-02-21T00:47:53.902Z,95161.70
2023-02-21T00:50:40.708Z,95152.08
2023-02-21T00:53:27.620Z,95156.61
2023-02-21T00:56:14.787Z,95153.38
2023-02-21T00:59:01.949Z,95150.18
2023-02-21T01:01:48.865Z,95148.29
2023-02-21T01:04:37.474Z,95147.05
2023-02-21T01:07:24.712Z,95137.73
2023-02-21T01:10:11.721Z,95128.49
2023-02-21T01:12:58.251Z,95139.46
2023-02-21T01:15:45.452Z,95151.58
2023-02-21T01:18:33.750Z,95151.82
2023-02-21T01:21:23.235Z,95148.75
2023-02-21T01:24:10.008Z,95147.80
2023-02-21T01:26:57.987Z,95140.81
2023-02-21T01:29:45.005Z,95148.80
2023-02-21T01:32:32.436Z,95150.31
2023-02-21T01:35:19.557Z,95144.59
2023-02-21T01:38:06.592Z,95140.13
2023-02-21T01:40:53.647Z,95130.95
2023-02-21T01:43:43.062Z,95121.77
2023-02-21T01:46:33.870Z,95129.13
2023-02-21T01:49:35.311Z,95129.36
2023-02-21T01:52:23.477Z,95133.63
2023-02-21T01:55:14.297Z,95123.80
2023-02-21T01:58:04.895Z,95129.95
2023-02-21T02:00:52.397Z,95128.63
2023-02-21T02:03:41.383Z,95128.86
2023-02-21T02:06:35.598Z,95128.05
2023-02-21T02:09:39.811Z,95124.27
2023-02-21T02:12:24.454Z,95116.91
2023-02-21T02:14:59.206Z,95114.81
2023-02-21T02:17:46.144Z,95117.05
2023-02-21T02:20:14.262Z,95107.33
2023-02-21T02:23:03.874Z,95092.95
2023-02-21T02:26:04.277Z,95089.60
2023-02-21T02:28:53.974Z,95079.91
2023-02-21T02:31:51.772Z,95073.41
2023-02-21T02:34:39.462Z,95066.88
2023-02-21T02:37:14.810Z,95059.81
2023-02-21T02:39:58.005Z,95056.07
2023-02-21T02:42:41.463Z,95040.59
2023-02-21T02:45:20.864Z,95037.35
2023-02-21T02:47:55.599Z,95033.49
2023-02-21T02:50:26.918Z,95042.10
2023-02-21T02:53:02.842Z,95042.13
2023-02-21T02:55:34.493Z,95031.60
2023-02-21T02:58:04.053Z,95024.09
2023-02-21T03:00:35.276Z,95025.16
2023-02-21T03:03:36.185Z,95024.64
2023-02-21T03:06:24.188Z,95020.73
2023-02-21T03:09:11.493Z,95018.38
2023-02-21T03:12:00.989Z,95017.91
2023-02-21T03:15:09.396Z,95012.53
2023-02-21T03:17:42.782Z,95019.09
2023-02-21T03:20:14.146Z,95017.44
2023-02-21T03:22:45.509Z,95019.48
2023-02-21T03:25:15.700Z,95017.52
2023-02-21T03:27:49.651Z,95019.05
2023-02-21T03:30:25.286Z,95015.10
2023-02-21T03:32:55.322Z,95017.98
2023-02-21T03:35:29.998Z,95014.81
2023-02-21T03:37:58.983Z,95013.45
2023-02-21T03:40:33.866Z,95017.80
2023-02-21T03:43:07.385Z,95015.93
2023-02-21T03:45:47.954Z,95005.84
2023-02-21T03:48:30.918Z,95011.05
2023-02-21T03:51:02.065Z,95015.73
2023-02-21T03:53:34.533Z,95014.68
2023-02-21T03:56:03.937Z,95003.90
2023-02-21T03:58:40.355Z,95002.05
2023-02-21T04:01:09.429Z,94997.63
2023-02-21T04:03:37.880Z,94998.79
2023-02-21T04:06:06.606Z,94990.44
2023-02-21T04:08:34.952Z,94993.55
2023-02-21T04:11:03.289Z,94992.21
2023-02-21T04:13:35.527Z,94987.67
2023-02-21T04:16:04.857Z,94992.26
2023-02-21T04:18:37.590Z,94986.90
2023-02-21T04:21:07.308Z,94990.98
2023-02-21T04:23:35.883Z,94992.89
2023-02-21T04:26:05.801Z,94995.14
2023-02-21T04:28:40.653Z,94997.16
2023-02-21T04:31:09.324Z,94994.73
2023-02-21T04:33:37.770Z,94991.97
2023-02-21T04:36:06.699Z,94989.58
2023-02-21T04:38:43.381Z,94987.66
2023-02-21T04:41:12.247Z,94989.30
2023-02-21T04:43:43.383Z,94983.53
2023-02-21T04:46:16.144Z,94983.00
2023-02-21T04:48:46.471Z,94983.63
2023-02-21T04:51:17.071Z,94981.89
2023-02-21T04:53:48.524Z,94970.77
2023-02-21T04:56:21.089Z,94969.12
2023-02-21T04:58:50.012Z,94971.76
2023-02-21T05:01:19.511Z,94974.64
2023-02-21T05:03:48.685Z,94977.59
2023-02-21T05:06:19.073Z,94978.02
2023-02-21T05:08:47.702Z,94982.77
2023-02-21T05:11:16.987Z,94984.93
2023-02-21T05:13:46.524Z,94985.23
2023-02-21T05:16:14.765Z,94988.38
2023-02-21T05:18:44.333Z,94980.15
2023-02-21T05:21:13.836Z,94983.12
2023-02-21T05:23:43.275Z,94995.05
2023-02-21T05:26:13.789Z,94995.04
2023-02-21T05:28:42.125Z,94993.03
2023-02-21T05:31:10.438Z,94997.38
2023-02-21T05:33:38.772Z,94995.39
2023-02-21T05:36:08.282Z,94995.61
2023-02-21T05:38:51.773Z,94998.14
2023-02-21T05:41:20.622Z,94995.16
2023-02-21T05:43:49.917Z,94992.15
2023-02-21T05:46:19.843Z,95001.39
2023-02-21T05:49:39.204Z,95008.89
2023-02-21T05:52:08.770Z,95004.71
2023-02-21T05:54:37.503Z,94997.73
2023-02-21T05:57:06.290Z,95000.50
2023-02-21T05:59:36.037Z,94999.30
2023-02-21T06:02:04.813Z,95012.70
2023-02-21T06:04:34.792Z,95012.71
2023-02-21T06:07:03.818Z,95021.05
2023-02-21T06:09:32.389Z,95033.78
2023-02-21T06:12:00.595Z,95023.91
2023-02-21T06:14:28.756Z,95022.27
2023-02-21T06:16:57.123Z,95028.50
2023-02-21T06:19:25.192Z,95025.57
2023-02-21T06:21:53.473Z,95018.24
2023-02-21T06:24:21.753Z,95017.74
2023-02-21T06:26:50.028Z,95015.71
2023-02-21T06:29:18.384Z,94994.27
2023-02-21T06:31:46.778Z,94988.59
2023-02-21T06:34:15.537Z,95007.48
2023-02-21T06:36:43.611Z,95017.80
2023-02-21T06:39:12.775Z,95020.15
2023-02-21T06:41:41.028Z,95022.48
2023-02-21T06:44:09.859Z,95034.61
2023-02-21T06:46:39.133Z,95048.95
2023-02-21T06:49:07.343Z,95044.23
2023-02-21T06:51:40.706Z,95037.05
2023-02-21T06:54:10.002Z,95038.79
2023-02-21T06:56:39.026Z,95031.07
2023-02-21T06:59:07.128Z,95026.36
2023-02-21T07:01:35.513Z,95017.62
2023-02-21T07:04:03.938Z,95009.48
2023-02-21T07:06:33.642Z,95004.73
2023-02-21T07:09:33.166Z,94998.86
2023-02-21T07:12:03.487Z,94994.34
2023-02-21T07:14:31.662Z,94991.25
2023-02-21T07:17:00.365Z,94986.23
2023-02-21T07:19:28.834Z,94978.76
2023-02-21T07:21:57.018Z,94975.72
2023-02-21T07:24:25.362Z,94972.09
2023-02-21T07:26:55.810Z,94975.80
2023-02-21T07:29:24.785Z,94991.49
2023-02-21T07:31:53.042Z,95012.36
2023-02-21T07:34:23.075Z,95010.48
2023-02-21T07:36:51.387Z,95012.65
2023-02-21T07:39:19.922Z,95021.09
2023-02-21T07:41:48.123Z,95019.84
2023-02-21T07:44:23.562Z,95015.48
2023-02-21T07:46:51.897Z,95011.23
2023-02-21T07:49:20.258Z,95003.36
2023-02-21T07:51:48.444Z,95000.41
2023-02-21T07:54:18.328Z,94988.54
2023-02-21T07:56:48.680Z,94991.92
2023-02-21T07:59:17.111Z,94989.08
2023-02-21T08:01:46.288Z,94999.52
2023-02-21T08:04:15.088Z,95006.48
2023-02-21T08:06:43.482Z,95011.39
2023-02-21T08:09:11.920Z,95011.88
2023-02-21T08:11:40.713Z,95010.61
2023-02-21T08:14:09.078Z,95005.59
2023-02-21T08:16:37.592Z,95005.00
2023-02-21T08:19:05.842Z,94997.06
2023-02-21T08:21:34.022Z,94990.70
2023-02-21T08:24:02.414Z,94990.34
2023-02-21T08:26:30.934Z,94999.48
2023-02-21T08:28:59.269Z,95001.14
2023-02-21T08:31:27.549Z,94997.44
2023-02-21T08:33:55.936Z,95007.69
2023-02-21T08:36:32.938Z,95002.09
2023-02-21T08:39:01.792Z,94999.83
2023-02-21T08:41:42.432Z,94995.15
2023-02-21T08:44:12.935Z,94990.08
2023-02-21T08:46:41.336Z,94984.86
2023-02-21T08:49:10.584Z,94973.44
2023-02-21T08:51:40.490Z,94974.48
2023-02-21T08:54:08.875Z,94967.42
2023-02-21T08:56:37.455Z,94974.63
2023-02-21T08:59:06.072Z,94977.01
2023-02-21T09:01:36.193Z,94976.98
2023-02-21T09:04:05.692Z,94976.78
2023-02-21T09:06:34.259Z,94971.12
2023-02-21T09:09:02.661Z,94976.69
2023-02-21T09:11:31.228Z,94971.34
2023-02-21T09:13:59.604Z,94975.70
2023-02-21T09:16:27.917Z,94965.75
2023-02-21T09:18:59.345Z,94973.90
2023-02-21T09:21:28.520Z,94967.21
2023-02-21T09:23:59.353Z,94975.94
2023-02-21T09:26:31.935Z,94986.20
2023-02-21T09:29:00.641Z,94990.41
2023-02-21T09:31:28.906Z,94987.41
2023-02-21T09:33:57.041Z,94991.70
2023-02-21T09:36:27.131Z,94999.48
2023-02-21T09:38:55.299Z,94998.54
2023-02-21T09:41:23.885Z,95014.61
2023-02-21T09:43:55.125Z,95011.23
2023-02-21T09:46:41.455Z,95000.98
2023-02-21T09:49:36.156Z,95006.22
2023-02-21T09:52:05.687Z,95006.80
2023-02-21T09:54:45.116Z,95002.95
2023-02-21T09:57:18.594Z,95002.13
2023-02-21T09:59:49.146Z,94993.89
2023-02-21T10:02:41.260Z,94995.30
2023-02-21T10:05:30.012Z,95001.74
2023-02-21T10:08:43.648Z,95001.80
2023-02-21T10:11:43.147Z,94994.32
2023-02-21T10:14:30.293Z,94989.17
2023-02-21T10:17:05.315Z,94982.14
2023-02-21T10:19:42.040Z,94980.43
2023-02-21T10:22:16.392Z,94977.62
2023-02-21T10:24:44.994Z,94973.73
2023-02-21T10:27:23.456Z,94976.61
2023-02-21T10:30:05.900Z,94979.98
2023-02-21T10:32:34.611Z,94992.38
2023-02-21T10:35:03.084Z,94986.68
2023-02-21T10:37:41.201Z,94985.86
2023-02-21T10:40:45.624Z,94988.21
2023-02-21T10:43:22.194Z,94985.86
2023-02-21T10:46:03.113Z,94989.44
2023-02-21T10:48:36.167Z,94984.40
2023-02-21T10:51:06.383Z,94979.63
2023-02-21T10:53:37.763Z,94972.80
2023-02-21T10:56:19.639Z,94972.89
2023-02-21T10:58:53.452Z,94973.63
2023-02-21T11:01:30.432Z,94988.80
2023-02-21T11:04:26.042Z,94980.88
2023-02-21T11:06:56.249Z,94978.09
2023-02-21T11:09:27.650Z,94974.77
2023-02-21T11:12:20.582Z,94966.52
2023-02-21T11:14:52.552Z,94966.52
2023-02-21T11:17:25.253Z,94964.38
2023-02-21T11:20:18.588Z,94971.98
2023-02-21T11:22:49.542Z,94978.79
2023-02-21T11:25:19.038Z,94986.45
2023-02-21T11:28:06.978Z,94989.44
2023-02-21T11:30:44.443Z,94991.57
2023-02-21T11:33:13.055Z,94980.39
2023-02-21T11:35:46.564Z,94969.07
2023-02-21T11:38:36.729Z,94965.04
2023-02-21T11:41:18.281Z,94957.30
2023-02-21T11:43:48.466Z,94944.61
2023-02-21T11:46:27.127Z,94944.02
2023-02-21T11:49:19.121Z,94940.02
2023-02-21T11:51:59.218Z,94947.86
2023-02-21T11:54:33.045Z,94954.00
2023-02-21T11:57:01.165Z,94964.51
2023-02-21T11:59:41.334Z,94966.71
2023-02-21T12:02:31.387Z,94966.42
2023-02-21T12:05:11.968Z,94965.63
2023-02-21T12:08:35.349Z,94973.23
2023-02-21T12:11:25.438Z,94982.48
2023-02-21T12:14:06.354Z,94994.41
2023-02-21T12:16:40.416Z,94998.30
2023-02-21T12:19:18.012Z,95001.36
2023-02-21T12:21:46.392Z,95000.77
2023-02-21T12:24:45.502Z,95011.72
2023-02-21T12:27:51.098Z,95009.88
2023-02-21T12:30:23.863Z,95012.34
2023-02-21T12:33:09.622Z,95012.25
2023-02-21T12:36:06.780Z,95007.48
2023-02-21T12:39:00.749Z,95006.84
2023-02-21T12:41:45.256Z,95010.19
2023-02-21T12:44:18.339Z,95014.87
2023-02-21T12:46:55.659Z,95019.90
2023-02-21T12:49:26.647Z,95020.77
2023-02-21T12:52:04.664Z,95022.55
2023-02-21T12:55:00.148Z,95028.08
2023-02-21T12:57:52.828Z,95028.63
2023-02-21T13:00:25.833Z,95030.79
2023-02-21T13:02:54.053Z,95020.93
2023-02-21T13:05:34.379Z,95021.94
2023-02-21T13:08:14.602Z,95025.23
2023-02-21T13:11:00.480Z,95026.16
2023-02-21T13:13:33.316Z,95032.02
2023-02-21T13:16:05.211Z,95035.45
2023-02-21T13:18:38.908Z,95030.36
2023-02-21T13:21:25.807Z,95030.58
2023-02-21T13:24:16.435Z,95033.14
2023-02-21T13:27:13.937Z,95033.86
2023-02-21T13:29:43.237Z,95035.80
2023-02-21T13:32:17.370Z,95032.25
2023-02-21T13:35:05.545Z,95034.76
2023-02-21T13:37:36.030Z,95037.31
2023-02-21T13:40:25.097Z,95038.89
2023-02-21T13:43:16.383Z,95036.08
2023-02-21T13:45:45.846Z,95030.87
2023-02-21T13:48:24.694Z,95032.27
2023-02-21T13:50:55.627Z,95030.14
2023-02-21T13:53:33.243Z,95030.80
2023-02-21T13:56:07.708Z,95027.80
2023-02-21T13:58:45.926Z,95024.95
2023-02-21T14:01:43.990Z,95026.53
2023-02-21T14:04:51.491Z,95025.52
2023-02-21T14:07:48.654Z,95020.09
2023-02-21T14:10:24.717Z,95021.64
2023-02-21T14:13:00.761Z,95014.69
2023-02-21T14:15:45.225Z,95017.14
2023-02-21T14:18:27.233Z,95018.39
2023-02-21T14:20:57.476Z,95011.86
2023-02-21T14:23:55.481Z,95006.35
2023-02-21T14:27:01.946Z,95009.79
2023-02-21T14:29:40.043Z,95008.98
2023-02-21T14:32:08.588Z,95005.13
2023-02-21T14:34:54.387Z,95010.58
2023-02-21T14:37:24.942Z,95012.40
2023-02-21T14:39:58.187Z,95018.73
2023-02-21T14:43:02.686Z,95015.90
2023-02-21T14:45:30.786Z,95020.64
2023-02-21T14:48:32.287Z,95021.23
2023-02-21T14:51:27.781Z,95026.22
2023-02-21T14:54:04.814Z,95026.64
2023-02-21T14:56:48.342Z,95027.42
2023-02-21T14:59:25.793Z,95028.30
2023-02-21T15:02:29.447Z,95028.20
2023-02-21T15:05:39.668Z,95030.80
2023-02-21T15:08:26.680Z,95033.16
2023-02-21T15:11:01.828Z,95033.12
2023-02-21T15:13:33.313Z,95037.17
2023-02-21T15:16:08.215Z,95032.00
2023-02-21T15:19:00.286Z,95039.21
2023-02-21T15:21:28.934Z,95039.02
2023-02-21T15:24:13.702Z,95042.70
2023-02-21T15:26:42.176Z,95051.52
2023-02-21T15:29:13.810Z,95052.73
2023-02-21T15:31:49.109Z,95054.57
2023-02-21T15:34:27.285Z,95056.56
2023-02-21T15:37:09.004Z,95062.17
2023-02-21T15:39:40.843Z,95062.58
2023-02-21T15:42:11.792Z,95067.64
2023-02-21T15:44:48.615Z,95070.98
2023-02-21T15:47:21.256Z,95073.30
2023-02-21T15:50:02.142Z,95072.98
2023-02-21T15:52:51.691Z,95076.32
2023-02-21T15:55:20.019Z,95078.09
2023-02-21T15:58:08.375Z,95084.58
2023-02-21T16:00:38.921Z,95085.63
2023-02-21T16:03:29.408Z,95085.48
2023-02-21T16:06:25.479Z,95097.56
2023-02-21T16:09:07.276Z,95103.20
2023-02-21T16:11:49.611Z,95105.32
2023-02-21T16:14:21.138Z,95106.55
2023-02-21T16:16:54.221Z,95108.52
2023-02-21T16:19:23.895Z,95111.98
2023-02-21T16:22:14.824Z,95110.42
2023-02-21T16:24:43.091Z,95113.05
2023-02-21T16:27:14.707Z,95119.89
2023-02-21T16:29:42.962Z,95122.99
2023-02-21T16:32:19.700Z,95123.29
2023-02-21T16:34:51.718Z,95127.49
2023-02-21T16:37:20.291Z,95133.16
2023-02-21T16:39:49.288Z,95135.54
2023-02-21T16:42:17.382Z,95140.08
2023-02-21T16:44:48.035Z,95144.96
2023-02-21T16:47:17.440Z,95148.98
2023-02-21T16:49:45.691Z,95152.26
2023-02-21T16:52:15.439Z,95152.41
2023-02-21T16:54:44.192Z,95152.44
2023-02-21T16:57:12.384Z,95151.45
2023-02-21T16:59:40.634Z,95154.91
2023-02-21T17:02:14.829Z,95158.83
2023-02-21T17:04:43.685Z,95162.77
2023-02-21T17:07:11.925Z,95164.18
2023-02-21T17:09:41.084Z,95166.73
2023-02-21T17:12:12.716Z,95167.27
2023-02-21T17:14:41.069Z,95169.98
2023-02-21T17:17:09.480Z,95176.09
2023-02-21T17:19:37.757Z,95177.70
2023-02-21T17:22:05.916Z,95179.29
2023-02-21T17:24:34.309Z,95184.31
2023-02-21T17:27:02.550Z,95186.86
2023-02-21T17:29:30.718Z,95184.67
2023-02-21T17:31:59.038Z,95186.25
2023-02-21T17:34:27.488Z,95189.67
2023-02-21T17:36:55.701Z,95187.05
2023-02-21T17:39:24.167Z,95189.95
2023-02-21T17:41:53.344Z,95186.44
2023-02-21T17:44:22.376Z,95189.23
2023-02-21T17:46:52.882Z,95191.21
2023-02-21T17:49:24.948Z,95192.89
2023-02-21T17:51:53.730Z,95191.16
2023-02-21T17:54:24.502Z,95194.23
2023-02-21T17:56:52.742Z,95195.86
2023-02-21T17:59:22.315Z,95199.80
2023-02-21T18:01:55.368Z,95201.98
2023-02-21T18:04:24.891Z,95201.75
2023-02-21T18:06:53.232Z,95199.04
2023-02-21T18:09:21.439Z,95199.73
2023-02-21T18:11:52.682Z,95199.81
2023-02-21T18:14:23.084Z,95201.07
2023-02-21T18:16:51.516Z,95199.09
2023-02-21T18:19:19.743Z,95198.63
2023-02-21T18:21:47.988Z,95197.80
2023-02-21T18:24:18.956Z,95203.88
2023-02-21T18:26:47.651Z,95208.39
2023-02-21T18:29:15.827Z,95200.81
2023-02-21T18:31:44.475Z,95203.32
2023-02-21T18:34:12.898Z,95199.48
2023-02-21T18:36:50.582Z,95201.95
2023-02-21T18:39:21.423Z,95203.59
2023-02-21T18:41:50.377Z,95205.34
2023-02-21T18:44:18.404Z,95206.02
2023-02-21T18:46:54.758Z,95207.27
2023-02-21T18:49:23.675Z,95215.41
2023-02-21T18:51:52.863Z,95217.39
2023-02-21T18:54:21.336Z,95216.73
2023-02-21T18:56:52.313Z,95225.10
2023-02-21T18:59:22.615Z,95219.25
2023-02-21T19:01:53.125Z,95220.17
2023-02-21T19:04:21.456Z,95221.58
2023-02-21T19:06:49.722Z,95223.23
2023-02-21T19:09:18.093Z,95227.59
2023-02-21T19:11:46.260Z,95228.55
2023-02-21T19:14:14.364Z,95231.14
2023-02-21T19:16:42.997Z,95233.20
2023-02-21T19:19:11.295Z,95238.52
2023-02-21T19:21:39.377Z,95244.66
2023-02-21T19:24:07.980Z,95241.19
2023-02-21T19:26:36.274Z,95239.08
2023-02-21T19:29:04.769Z,95236.39
2023-02-21T19:31:33.131Z,95232.63
2023-02-21T19:34:01.787Z,95233.69
2023-02-21T19:36:29.966Z,95235.05
2023-02-21T19:38:58.240Z,95231.12
2023-02-21T19:41:28.289Z,95231.52
2023-02-21T19:43:56.537Z,95232.86
2023-02-21T19:46:28.200Z,95231.23
2023-02-21T19:48:57.300Z,95233.08
2023-02-21T19:51:28.921Z,95232.17
2023-02-21T19:53:59.359Z,95231.36
2023-02-21T19:56:28.617Z,95233.36
2023-02-21T19:58:58.294Z,95232.91
2023-02-21T20:01:26.682Z,95230.95
2023-02-21T20:03:57.727Z,95237.64
2023-02-21T20:06:28.044Z,95238.58
2023-02-21T20:08:56.665Z,95240.88
2023-02-21T20:11:24.801Z,95240.09
2023-02-21T20:13:53.487Z,95243.80
2023-02-21T20:16:22.534Z,95244.56
2023-02-21T20:18:52.102Z,95246.61
2023-02-21T20:21:30.844Z,95240.33
2023-02-21T20:24:00.236Z,95243.39
2023-02-21T20:26:29.537Z,95239.92
2023-02-21T20:28:57.684Z,95243.19
2023-02-21T20:31:32.706Z,95242.62
2023-02-21T20:34:05.675Z,95245.77
2023-02-21T20:36:40.272Z,95250.20
2023-02-21T20:39:28.358Z,95251.76
2023-02-21T20:41:57.562Z,95249.15
2023-02-21T20:44:26.376Z,95248.55
2023-02-21T20:46:57.017Z,95246.57
2023-02-21T20:49:25.503Z,95247.45
2023-02-21T20:51:54.169Z,95245.61
2023-02-21T20:54:22.913Z,95253.60
2023-02-21T20:56:53.859Z,95256.10
2023-02-21T20:59:26.565Z,95260.54
2023-02-21T21:01:55.700Z,95262.81
2023-02-21T21:04:29.401Z,95266.85
2023-02-21T21:07:00.927Z,95267.49
2023-02-21T21:09:34.309Z,95271.98
2023-02-21T21:12:06.019Z,95272.52
2023-02-21T21:14:37.502Z,95277.67
2023-02-21T21:17:06.367Z,95277.53
2023-02-21T21:19:35.050Z,95280.44
2023-02-21T21:22:06.043Z,95277.60
2023-02-21T21:24:34.168Z,95275.73
2023-02-21T21:27:10.021Z,95276.38
2023-02-21T21:29:43.172Z,95275.06
2023-02-21T21:32:17.269Z,95277.14
2023-02-21T21:34:51.904Z,95277.13
2023-02-21T21:37:26.793Z,95276.84
2023-02-21T21:39:56.615Z,95280.33
2023-02-21T21:42:28.860Z,95284.04
2023-02-21T21:44:57.697Z,95283.37
2023-02-21T21:47:29.013Z,95286.77
2023-02-21T21:49:57.634Z,95284.23
2023-02-21T21:52:25.831Z,95287.29
2023-02-21T21:54:53.864Z,95289.48
2023-02-21T21:57:22.997Z,95290.95
2023-02-21T21:59:51.334Z,95290.72
2023-02-21T22:02:20.400Z,95288.79
2023-02-21T22:04:48.534Z,95292.02
2023-02-21T22:07:17.608Z,95289.58
2023-02-21T22:09:46.535Z,95297.30
2023-02-21T22:12:18.588Z,95295.06
2023-02-21T22:14:46.834Z,95296.20
2023-02-21T22:17:15.262Z,95297.10
2023-02-21T22:19:43.395Z,95297.93
2023-02-21T22:22:11.466Z,95299.24
2023-02-21T22:24:40.756Z,95298.87
2023-02-21T22:27:09.685Z,95301.42
2023-02-21T22:29:37.979Z,95304.06
2023-02-21T22:32:08.400Z,95301.36
2023-02-21T22:34:36.744Z,95306.77
2023-02-21T22:37:05.240Z,95303.99
2023-02-21T22:39:33.568Z,95303.77
2023-02-21T22:42:05.366Z,95309.81
2023-02-21T22:44:33.419Z,95307.83
2023-02-21T22:47:01.617Z,95307.54
2023-02-21T22:49:30.830Z,95310.81
2023-02-21T22:51:59.158Z,95315.66
2023-02-21T22:54:27.381Z,95312.53
2023-02-21T22:57:04.583Z,95314.73
2023-02-21T22:59:35.611Z,95316.20
2023-02-21T23:02:04.195Z,95316.76
2023-02-21T23:04:37.570Z,95318.02
2023-02-21T23:07:06.498Z,95316.45
2023-02-21T23:09:37.531Z,95314.17
2023-02-21T23:12:06.411Z,95316.21
2023-02-21T23:14:39.544Z,95316.91
2023-02-21T23:17:07.588Z,95318.24
2023-02-21T23:19:35.618Z,95320.89
2023-02-21T23:22:05.482Z,95318.55
2023-02-21T23:24:34.063Z,95321.45
2023-02-21T23:27:03.228Z,95317.82
2023-02-21T23:29:31.729Z,95318.01
2023-02-21T23:32:09.899Z,95314.45
2023-02-21T23:34:41.344Z,95313.45
2023-02-21T23:37:12.811Z,95318.62
2023-02-21T23:39:42.201Z,95316.19
2023-02-21T23:42:11.397Z,95316.79
2023-02-21T23:44:39.814Z,95317.48
2023-02-21T23:47:08.225Z,95320.26
2023-02-21T23:49:40.811Z,95318.26
2023-02-21T23:52:09.655Z,95319.40
2023-02-21T23:54:38.715Z,95319.29
2023-02-21T23:57:07.795Z,95316.84
2023-02-21T23:59:36.008Z,95320.06
